Time;durP1;ratioP1;P1;durP2;ratioP2;P2;SDS_P1;SDS_P2;PMS_P1;PMS_P2;Temp;Humidity;BMP_temperature;BMP_pressure;BME280_temperature;BME280_humidity;BME280_pressure;Samples;Min_cycle;Max_cycle;Signal;HPM_P1;HPM_P2
2022/11/17 00:01:21;;;;;;;37.72;19.75;;;;;;;;;;5053137;28;20392;-41
2022/11/17 00:03:47;;;;;;;42.45;19.85;;;;;;;;;;5052691;28;20017;-39
2022/11/17 00:06:13;;;;;;;39.08;19.15;;;;;;;;;;5053154;28;20526;-42
2022/11/17 00:08:38;;;;;;;42.30;20.23;;;;;;;;;;5051093;28;20074;-40
2022/11/17 00:11:04;;;;;;;41.47;21.53;;;;;;;;;;5053189;28;20061;-40
2022/11/17 00:16:14;;;;;;;39.10;19.05;;;;;;;;;;5053158;28;20376;-40
2022/11/17 00:21:25;;;;;;;40.25;20.98;;;;;;;;;;5053021;28;20024;-40
2022/11/17 00:23:51;;;;;;;43.75;20.52;;;;;;;;;;5052761;28;20029;-39
2022/11/17 00:26:17;;;;;;;41.10;19.42;;;;;;;;;;5052728;28;20037;-38
2022/11/17 00:28:43;;;;;;;39.40;19.27;;;;;;;;;;5052683;28;20112;-37
2022/11/17 00:34:05;;;;;;;37.85;18.50;;;;;;;;;;5052840;28;20158;-42
2022/11/17 00:36:35;;;;;;;44.15;20.85;;;;;;;;;;5052734;28;20406;-42
2022/11/17 00:39:00;;;;;;;42.45;21.10;;;;;;;;;;5052616;28;20067;-40
2022/11/17 00:41:26;;;;;;;42.97;21.55;;;;;;;;;;5052329;28;20029;-45
2022/11/17 00:43:51;;;;;;;48.75;21.45;;;;;;;;;;5051425;28;20021;-42
2022/11/17 00:46:16;;;;;;;41.17;20.43;;;;;;;;;;5052427;28;20049;-43
2022/11/17 00:48:41;;;;;;;45.77;21.10;;;;;;;;;;5056209;28;20257;-38
2022/11/17 00:51:07;;;;;;;44.00;20.13;;;;;;;;;;5055227;28;20266;-42
2022/11/17 00:53:32;;;;;;;44.00;21.70;;;;;;;;;;5056370;28;20247;-43
2022/11/17 00:55:57;;;;;;;43.70;21.40;;;;;;;;;;5056131;28;20820;-40
2022/11/17 00:58:22;;;;;;;44.37;21.67;;;;;;;;;;5056469;28;20094;-42
2022/11/17 01:00:48;;;;;;;42.25;21.10;;;;;;;;;;5056303;28;20254;-41
2022/11/17 01:03:13;;;;;;;45.33;21.77;;;;;;;;;;5055652;28;20028;-37
2022/11/17 01:05:38;;;;;;;48.08;21.17;;;;;;;;;;5054805;28;20120;-41
2022/11/17 01:08:04;;;;;;;49.65;21.92;;;;;;;;;;5056127;28;20017;-41
2022/11/17 01:10:29;;;;;;;48.33;22.15;;;;;;;;;;5055707;28;20361;-42
2022/11/17 01:12:54;;;;;;;41.80;21.23;;;;;;;;;;5056359;28;20025;-37
2022/11/17 01:15:19;;;;;;;44.77;21.50;;;;;;;;;;5064851;28;20234;-40
2022/11/17 01:17:45;;;;;;;42.60;21.00;;;;;;;;;;5075559;28;20249;-42
2022/11/17 01:20:10;;;;;;;48.20;21.10;;;;;;;;;;5074719;28;20340;-41
2022/11/17 01:22:36;;;;;;;47.97;21.58;;;;;;;;;;5074440;28;20024;-39
2022/11/17 01:25:01;;;;;;;41.53;21.00;;;;;;;;;;5074132;28;20388;-40
2022/11/17 01:27:26;;;;;;;46.90;21.95;;;;;;;;;;5074457;28;20444;-41
2022/11/17 01:29:51;;;;;;;41.60;21.52;;;;;;;;;;5074542;28;20058;-42
2022/11/17 01:32:17;;;;;;;47.22;21.55;;;;;;;;;;5074217;28;20020;-40
2022/11/17 01:34:42;;;;;;;42.85;20.75;;;;;;;;;;5074334;28;20020;-38
2022/11/17 01:37:19;;;;;;;46.27;22.27;;;;;;;;;;5074262;28;20020;-42
2022/11/17 01:39:45;;;;;;;44.85;20.85;;;;;;;;;;5073945;28;20332;-39
2022/11/17 01:42:30;;;;;;;43.63;21.52;;;;;;;;;;5072512;28;20096;-40
2022/11/17 01:44:57;;;;;;;43.63;21.50;;;;;;;;;;5055033;28;20072;-42
2022/11/17 01:47:26;;;;;;;36.35;17.67;;;;;;;;;;5055053;28;20049;-42
2022/11/17 01:49:54;;;;;;;39.53;19.58;;;;;;;;;;5054823;28;20468;-43
2022/11/17 01:52:20;;;;;;;41.28;20.45;;;;;;;;;;5054979;28;20024;-40
2022/11/17 01:54:47;;;;;;;39.03;20.27;;;;;;;;;;5055427;28;20358;-42
2022/11/17 01:57:14;;;;;;;36.20;18.60;;;;;;;;;;5071773;28;20361;-42
2022/11/17 01:59:39;;;;;;;37.10;19.48;;;;;;;;;;5073150;28;20380;-41
2022/11/17 02:02:05;;;;;;;36.77;18.73;;;;;;;;;;5074043;28;20095;-40
2022/11/17 02:04:35;;;;;;;41.83;20.08;;;;;;;;;;5073449;28;20241;-39
2022/11/17 02:07:06;;;;;;;47.35;22.02;;;;;;;;;;5073755;28;20029;-41
2022/11/17 02:09:33;;;;;;;48.30;23.27;;;;;;;;;;5073554;28;20017;-42
2022/11/17 02:11:59;;;;;;;46.00;21.92;;;;;;;;;;5073676;28;20099;-42
2022/11/17 02:14:24;;;;;;;41.95;20.58;;;;;;;;;;5072070;28;20104;-42
2022/11/17 02:16:49;;;;;;;51.63;23.70;;;;;;;;;;5052982;28;20025;-38
2022/11/17 02:19:15;;;;;;;55.63;23.40;;;;;;;;;;5053283;28;20132;-42
2022/11/17 02:21:40;;;;;;;51.78;22.75;;;;;;;;;;5054727;28;20475;-40
2022/11/17 02:24:05;;;;;;;51.80;23.23;;;;;;;;;;5054874;28;20029;-40
2022/11/17 02:26:40;;;;;;;45.83;22.97;;;;;;;;;;5054774;28;20286;-41
2022/11/17 02:29:20;;;;;;;52.38;23.10;;;;;;;;;;5054683;28;20266;-43
2022/11/17 02:32:05;;;;;;;45.88;21.50;;;;;;;;;;5054276;28;20017;-41
2022/11/17 02:34:31;;;;;;;51.75;23.80;;;;;;;;;;5054558;28;20104;-42
2022/11/17 02:37:14;;;;;;;47.20;22.77;;;;;;;;;;5054899;28;20100;-40
2022/11/17 02:39:54;;;;;;;46.92;23.67;;;;;;;;;;5060565;28;20254;-41
2022/11/17 02:44:02;;;;;;;58.27;26.53;;;;;;;;;;5073043;28;20531;-41
2022/11/17 02:45:08;;;;;;;53.78;25.40;;;;;;;;;;5072484;28;20291;-42
2022/11/17 02:47:34;;;;;;;49.33;24.77;;;;;;;;;;5071286;28;20057;-39
2022/11/17 02:50:05;;;;;;;48.95;26.00;;;;;;;;;;5072607;28;20025;-42
2022/11/17 02:52:30;;;;;;;49.50;24.63;;;;;;;;;;5073050;28;20021;-39
2022/11/17 02:55:03;;;;;;;56.33;26.85;;;;;;;;;;5072709;28;20510;-37
2022/11/17 02:57:30;;;;;;;51.72;25.08;;;;;;;;;;5073203;28;20107;-42
2022/11/17 02:59:56;;;;;;;57.20;26.60;;;;;;;;;;5072458;28;20071;-41
2022/11/17 03:02:46;;;;;;;51.92;25.02;;;;;;;;;;5054808;28;20028;-42
2022/11/17 03:05:15;;;;;;;59.67;27.25;;;;;;;;;;5070987;28;20029;-42
2022/11/17 03:07:56;;;;;;;52.05;25.67;;;;;;;;;;5072471;28;20020;-42
2022/11/17 03:10:27;;;;;;;54.80;25.85;;;;;;;;;;5071074;28;20024;-42
2022/11/17 03:13:02;;;;;;;49.83;26.42;;;;;;;;;;5072062;28;20025;-40
2022/11/17 03:15:42;;;;;;;54.55;26.83;;;;;;;;;;5070808;28;20361;-40
2022/11/17 03:18:19;;;;;;;53.45;23.92;;;;;;;;;;5072258;28;20395;-39
2022/11/17 03:20:44;;;;;;;49.22;23.42;;;;;;;;;;5072281;28;20834;-42
2022/11/17 03:23:12;;;;;;;66.00;35.00;;;;;;;;;;5072361;28;20027;-40
2022/11/17 03:25:38;;;;;;;57.75;26.13;;;;;;;;;;5071942;28;20285;-37
2022/11/17 03:28:05;;;;;;;132.43;73.15;;;;;;;;;;5072129;28;20037;-41
2022/11/17 03:30:32;;;;;;;49.28;24.42;;;;;;;;;;5072529;28;20086;-40
2022/11/17 03:33:01;;;;;;;377.02;108.40;;;;;;;;;;5072034;28;20170;-43
2022/11/17 03:35:28;;;;;;;47.30;24.33;;;;;;;;;;5072616;28;20403;-35
2022/11/17 03:37:56;;;;;;;49.85;26.20;;;;;;;;;;5071892;28;20287;-39
2022/11/17 03:40:24;;;;;;;241.07;106.50;;;;;;;;;;5071845;28;20020;-41
2022/11/17 03:42:52;;;;;;;51.92;24.45;;;;;;;;;;5071891;28;20062;-42
2022/11/17 03:45:18;;;;;;;54.05;26.75;;;;;;;;;;5072821;28;20111;-42
2022/11/17 03:47:43;;;;;;;50.05;25.25;;;;;;;;;;5071658;28;20144;-40
2022/11/17 03:50:19;;;;;;;50.85;23.67;;;;;;;;;;5071999;28;20032;-42
2022/11/17 03:52:45;;;;;;;50.58;23.50;;;;;;;;;;5072147;28;20028;-42
2022/11/17 03:55:10;;;;;;;51.17;24.73;;;;;;;;;;5071774;28;20145;-39
2022/11/17 03:57:44;;;;;;;79.70;45.75;;;;;;;;;;5071830;28;20374;-40
2022/11/17 04:00:11;;;;;;;48.40;24.30;;;;;;;;;;5071767;28;20024;-41
2022/11/17 04:02:39;;;;;;;52.80;23.63;;;;;;;;;;5071742;28;20019;-38
2022/11/17 04:05:04;;;;;;;54.15;24.60;;;;;;;;;;5072719;28;20036;-39
2022/11/17 04:07:39;;;;;;;57.20;23.52;;;;;;;;;;5071451;28;20368;-42
2022/11/17 04:10:06;;;;;;;54.83;24.08;;;;;;;;;;5071686;28;20418;-40
2022/11/17 04:18:16;;;;;;;53.07;24.50;;;;;;;;;;5049807;28;20069;-40
2022/11/17 04:20:41;;;;;;;60.90;25.02;;;;;;;;;;5065755;28;20083;-41
2022/11/17 04:23:10;;;;;;;62.33;24.00;;;;;;;;;;5072804;28;20024;-42
2022/11/17 04:28:38;;;;;;;;;;;;;;;;;;5075898;28;20027;-42
2022/11/17 04:31:22;;;;;;;56.25;23.67;;;;;;;;;;5075331;28;20015;-42
2022/11/17 04:33:51;;;;;;;56.92;25.13;;;;;;;;;;5075152;28;20029;-41
2022/11/17 04:36:16;;;;;;;;;;;;;;;;;;5075868;28;20025;-39
2022/11/17 04:38:42;;;;;;;62.55;24.30;;;;;;;;;;5076076;28;19912;-39
2022/11/17 04:43:53;;;;;;;53.45;23.58;;;;;;;;;;5075778;28;20114;-42
2022/11/17 04:46:19;;;;;;;54.15;24.27;;;;;;;;;;5074744;28;20490;-41
2022/11/17 04:48:44;;;;;;;57.83;26.85;;;;;;;;;;5075063;28;20489;-41
2022/11/17 04:51:09;;;;;;;58.70;26.85;;;;;;;;;;5074626;28;20021;-42
2022/11/17 04:53:35;;;;;;;61.65;26.10;;;;;;;;;;5075169;28;20074;-42
2022/11/17 04:56:01;;;;;;;61.03;25.83;;;;;;;;;;5075113;28;20428;-42
2022/11/17 04:58:26;;;;;;;63.88;27.92;;;;;;;;;;5074907;28;20080;-40
2022/11/17 05:00:51;;;;;;;62.03;27.08;;;;;;;;;;5074608;28;20017;-42
2022/11/17 05:03:16;;;;;;;59.27;25.87;;;;;;;;;;5074636;28;20471;-39
2022/11/17 05:05:45;;;;;;;60.47;26.88;;;;;;;;;;5075219;28;20483;-43
2022/11/17 05:08:10;;;;;;;56.90;25.30;;;;;;;;;;5074721;28;20087;-42
2022/11/17 05:13:25;;;;;;;62.40;26.95;;;;;;;;;;5074381;28;20058;-42
2022/11/17 05:18:39;;;;;;;58.70;25.02;;;;;;;;;;5074759;28;20451;-41
2022/11/17 05:21:05;;;;;;;61.45;25.70;;;;;;;;;;5074382;28;20016;-42
2022/11/17 05:26:14;;;;;;;80.47;32.70;;;;;;;;;;5073991;28;20043;-41
2022/11/17 05:28:39;;;;;;;54.43;26.27;;;;;;;;;;5074105;28;20024;-39
2022/11/17 05:31:05;;;;;;;620.38;152.95;;;;;;;;;;5074405;28;20273;-41
2022/11/17 05:33:30;;;;;;;493.30;124.40;;;;;;;;;;5073376;28;20028;-41
2022/11/17 05:35:55;;;;;;;484.55;124.90;;;;;;;;;;5074593;28;20103;-40
2022/11/17 05:38:20;;;;;;;454.38;125.25;;;;;;;;;;5074069;28;20092;-42
2022/11/17 05:40:46;;;;;;;437.80;119.15;;;;;;;;;;5073852;28;20456;-42
2022/11/17 05:43:11;;;;;;;386.08;114.57;;;;;;;;;;5072499;28;20095;-40
2022/11/17 05:45:36;;;;;;;405.83;115.53;;;;;;;;;;5072567;28;20036;-41
2022/11/17 05:48:01;;;;;;;399.35;117.10;;;;;;;;;;5073987;28;20362;-39
2022/11/17 05:50:26;;;;;;;456.27;123.88;;;;;;;;;;5074035;28;20024;-38
2022/11/17 05:52:52;;;;;;;465.92;125.28;;;;;;;;;;5073759;28;20070;-40
2022/11/17 05:55:17;;;;;;;469.80;124.38;;;;;;;;;;5073648;28;20012;-38
2022/11/17 05:57:43;;;;;;;454.10;122.65;;;;;;;;;;5073478;28;20039;-42
2022/11/17 06:00:08;;;;;;;458.83;125.47;;;;;;;;;;5074055;28;20025;-41
2022/11/17 06:02:37;;;;;;;378.38;112.72;;;;;;;;;;5073834;28;20032;-41
2022/11/17 06:05:03;;;;;;;325.88;109.50;;;;;;;;;;5073404;28;20028;-39
2022/11/17 06:07:28;;;;;;;361.00;113.90;;;;;;;;;;5073335;28;20410;-39
2022/11/17 06:09:53;;;;;;;359.20;115.85;;;;;;;;;;5073305;28;20032;-39
2022/11/17 06:12:18;;;;;;;268.15;102.05;;;;;;;;;;5073164;28;20033;-41
2022/11/17 06:14:44;;;;;;;255.52;100.53;;;;;;;;;;5072952;28;20387;-38
2022/11/17 06:17:16;;;;;;;357.60;114.13;;;;;;;;;;5074116;28;20069;-37
2022/11/17 06:19:44;;;;;;;350.17;109.63;;;;;;;;;;5073185;28;20727;-42
2022/11/17 06:22:10;;;;;;;376.13;113.30;;;;;;;;;;5072961;28;20062;-42
2022/11/17 06:24:36;;;;;;;354.77;112.60;;;;;;;;;;5073055;28;20093;-38
2022/11/17 06:27:01;;;;;;;374.42;113.43;;;;;;;;;;5072781;28;20516;-40
2022/11/17 06:29:27;;;;;;;434.70;118.75;;;;;;;;;;5073251;28;20052;-41
2022/11/17 06:31:54;;;;;;;480.83;123.45;;;;;;;;;;5073071;28;20021;-43
2022/11/17 06:34:20;;;;;;;480.65;126.30;;;;;;;;;;5069717;28;20021;-43
2022/11/17 06:36:45;;;;;;;487.85;126.55;;;;;;;;;;5060851;28;20524;-42
2022/11/17 06:39:10;;;;;;;431.98;121.47;;;;;;;;;;5053876;28;20020;-38
2022/11/17 06:41:35;;;;;;;349.55;115.18;;;;;;;;;;5069809;28;20019;-42
2022/11/17 06:44:01;;;;;;;464.70;123.43;;;;;;;;;;5055026;28;20028;-43
2022/11/17 06:46:36;;;;;;;471.05;124.88;;;;;;;;;;5053561;28;20049;-42
2022/11/17 06:49:02;;;;;;;46.88;21.85;;;;;;;;;;5053214;28;20021;-43
2022/11/17 06:51:27;;;;;;;41.70;21.17;;;;;;;;;;5053534;28;20013;-42
2022/11/17 06:53:52;;;;;;;43.40;20.57;;;;;;;;;;5069546;28;20325;-42
2022/11/17 06:56:17;;;;;;;48.37;21.07;;;;;;;;;;5052943;28;20250;-38
2022/11/17 06:58:44;;;;;;;46.23;21.03;;;;;;;;;;5053886;28;20254;-43
2022/11/17 07:01:10;;;;;;;49.65;21.63;;;;;;;;;;5052836;28;20316;-45
2022/11/17 07:03:36;;;;;;;44.10;21.33;;;;;;;;;;5053027;28;20017;-38
2022/11/17 07:06:02;;;;;;;44.92;22.15;;;;;;;;;;5058960;28;20525;-43
2022/11/17 07:08:28;;;;;;;47.03;21.63;;;;;;;;;;5056618;28;20017;-41
2022/11/17 07:10:53;;;;;;;42.78;21.63;;;;;;;;;;5058465;28;20030;-40
2022/11/17 07:13:22;;;;;;;48.55;21.60;;;;;;;;;;5070831;28;20017;-42
2022/11/17 07:15:51;;;;;;;54.60;22.85;;;;;;;;;;5064603;28;20025;-45
2022/11/17 07:18:19;;;;;;;45.97;21.88;;;;;;;;;;5055979;28;20070;-43
2022/11/17 07:20:45;;;;;;;45.97;22.20;;;;;;;;;;5056870;28;20021;-38
2022/11/17 07:23:11;;;;;;;42.17;20.23;;;;;;;;;;5064610;28;20472;-43
2022/11/17 07:25:36;;;;;;;44.22;19.88;;;;;;;;;;5047760;28;20036;-41
2022/11/17 07:28:02;;;;;;;43.97;20.52;;;;;;;;;;5057990;28;20734;-40
2022/11/17 07:30:27;;;;;;;45.47;20.55;;;;;;;;;;5066208;28;20096;-40
2022/11/17 07:32:53;;;;;;;45.38;20.33;;;;;;;;;;5062656;28;20055;-42
2022/11/17 07:35:18;;;;;;;40.33;20.25;;;;;;;;;;5055438;28;20061;-42
2022/11/17 07:37:43;;;;;;;44.00;21.48;;;;;;;;;;5067894;28;20025;-42
2022/11/17 07:40:09;;;;;;;43.55;20.80;;;;;;;;;;5063165;28;20360;-34
2022/11/17 07:42:34;;;;;;;43.65;20.73;;;;;;;;;;5056915;28;20050;-45
2022/11/17 07:45:00;;;;;;;43.47;20.23;;;;;;;;;;5052495;28;20040;-42
2022/11/17 07:47:25;;;;;;;46.65;21.88;;;;;;;;;;5054403;28;20052;-43
2022/11/17 07:49:50;;;;;;;46.63;22.10;;;;;;;;;;5058246;28;20021;-42
2022/11/17 07:52:16;;;;;;;49.47;23.58;;;;;;;;;;5062649;28;20021;-43
2022/11/17 07:54:41;;;;;;;40.30;21.75;;;;;;;;;;5055116;28;20069;-45
2022/11/17 07:57:06;;;;;;;41.83;20.25;;;;;;;;;;5053996;28;20055;-38
2022/11/17 07:59:32;;;;;;;33.65;17.88;;;;;;;;;;5061812;28;20029;-45
2022/11/17 08:01:57;;;;;;;31.92;17.60;;;;;;;;;;5049839;28;20028;-43
2022/11/17 08:04:22;;;;;;;33.47;17.63;;;;;;;;;;5054837;28;20028;-43
2022/11/17 08:06:47;;;;;;;36.95;17.45;;;;;;;;;;5057070;28;20044;-43
2022/11/17 08:09:14;;;;;;;32.90;17.25;;;;;;;;;;5054435;28;20028;-44
2022/11/17 08:11:39;;;;;;;34.85;17.75;;;;;;;;;;5051507;28;20656;-43
2022/11/17 08:14:05;;;;;;;35.78;17.98;;;;;;;;;;5060913;28;20039;-43
2022/11/17 08:16:30;;;;;;;34.83;17.83;;;;;;;;;;5059521;28;20027;-42
2022/11/17 08:18:56;;;;;;;32.53;17.17;;;;;;;;;;5053626;28;20028;-43
2022/11/17 08:21:22;;;;;;;33.78;17.52;;;;;;;;;;5054627;28;20435;-42
2022/11/17 08:23:51;;;;;;;34.25;16.27;;;;;;;;;;5053048;28;20051;-37
2022/11/17 08:26:17;;;;;;;30.65;17.13;;;;;;;;;;5056697;28;20568;-40
2022/11/17 08:28:42;;;;;;;33.70;16.70;;;;;;;;;;5050502;28;20096;-40
2022/11/17 08:31:08;;;;;;;31.20;16.20;;;;;;;;;;5052536;28;20514;-37
2022/11/17 08:33:33;;;;;;;37.13;16.88;;;;;;;;;;5057356;28;20103;-37
2022/11/17 08:35:59;;;;;;;32.15;16.63;;;;;;;;;;5065372;28;20033;-41
2022/11/17 08:38:28;;;;;;;32.55;15.55;;;;;;;;;;5055403;28;20028;-39
2022/11/17 08:40:56;;;;;;;36.50;17.63;;;;;;;;;;5065981;28;20032;-45
2022/11/17 08:43:21;;;;;;;39.80;17.43;;;;;;;;;;5057431;28;20027;-37
2022/11/17 08:45:47;;;;;;;33.53;17.83;;;;;;;;;;5057898;28;20285;-41
2022/11/17 08:48:12;;;;;;;34.25;17.48;;;;;;;;;;5051951;28;20028;-39
2022/11/17 08:50:37;;;;;;;38.65;17.35;;;;;;;;;;5051313;28;20021;-41
2022/11/17 08:53:03;;;;;;;31.73;16.33;;;;;;;;;;5051999;28;20112;-39
2022/11/17 08:55:28;;;;;;;32.63;16.20;;;;;;;;;;5055833;28;20108;-43
2022/11/17 08:57:53;;;;;;;31.75;16.58;;;;;;;;;;5055196;28;20025;-42
2022/11/17 09:00:20;;;;;;;30.58;15.38;;;;;;;;;;5051687;28;20372;-40
2022/11/17 09:02:46;;;;;;;33.63;15.57;;;;;;;;;;5065777;28;20056;-42
2022/11/17 09:05:11;;;;;;;30.02;14.95;;;;;;;;;;5054893;28;20033;-36
2022/11/17 09:07:36;;;;;;;26.98;14.63;;;;;;;;;;5059516;28;20693;-37
2022/11/17 09:10:04;;;;;;;27.75;16.98;;;;;;;;;;5054494;28;20452;-40
2022/11/17 09:12:30;;;;;;;29.33;16.40;;;;;;;;;;5055299;28;20052;-40
2022/11/17 09:14:55;;;;;;;27.55;15.13;;;;;;;;;;5058312;28;20484;-37
2022/11/17 09:17:20;;;;;;;31.02;15.82;;;;;;;;;;5057976;28;20534;-36
2022/11/17 09:19:46;;;;;;;30.48;13.88;;;;;;;;;;5059223;28;20389;-43
2022/11/17 09:22:11;;;;;;;22.70;12.80;;;;;;;;;;5055190;28;20067;-42
2022/11/17 09:24:36;;;;;;;21.50;12.95;;;;;;;;;;5060614;28;20461;-39
2022/11/17 09:27:02;;;;;;;25.95;12.85;;;;;;;;;;5058496;28;20033;-41
2022/11/17 09:29:28;;;;;;;21.73;12.10;;;;;;;;;;5055446;28;20020;-41
2022/11/17 09:31:53;;;;;;;21.73;12.20;;;;;;;;;;5055361;28;20016;-38
2022/11/17 09:34:18;;;;;;;25.15;16.33;;;;;;;;;;5056636;28;20510;-40
2022/11/17 09:36:44;;;;;;;22.65;14.20;;;;;;;;;;5054563;28;20029;-43
2022/11/17 09:39:09;;;;;;;20.92;12.85;;;;;;;;;;5066738;28;20025;-45
2022/11/17 09:41:39;;;;;;;20.75;12.00;;;;;;;;;;5064302;28;20066;-44
2022/11/17 09:44:23;;;;;;;24.33;12.15;;;;;;;;;;5051908;28;20460;-42
2022/11/17 09:46:58;;;;;;;24.58;13.70;;;;;;;;;;5061529;28;20059;-42
2022/11/17 09:49:34;;;;;;;20.50;11.07;;;;;;;;;;5059074;28;20026;-43
2022/11/17 09:52:03;;;;;;;19.00;11.02;;;;;;;;;;5053459;28;20033;-39
2022/11/17 09:54:28;;;;;;;17.05;10.88;;;;;;;;;;5060850;28;20071;-41
2022/11/17 09:56:55;;;;;;;16.00;9.80;;;;;;;;;;5061816;28;20053;-42
2022/11/17 09:59:24;;;;;;;25.50;11.15;;;;;;;;;;5064911;28;20131;-44
2022/11/17 10:01:49;;;;;;;22.80;11.07;;;;;;;;;;5064702;28;20433;-45
2022/11/17 10:04:15;;;;;;;17.50;9.90;;;;;;;;;;5061007;28;20117;-45
2022/11/17 10:06:43;;;;;;;14.05;9.18;;;;;;;;;;5063335;28;20043;-44
2022/11/17 10:09:08;;;;;;;14.85;9.40;;;;;;;;;;5055984;28;20541;-43
2022/11/17 10:11:36;;;;;;;19.47;10.77;;;;;;;;;;5057186;28;20020;-41
2022/11/17 10:14:08;;;;;;;14.07;9.23;;;;;;;;;;5058754;28;20262;-39
2022/11/17 10:16:35;;;;;;;16.42;9.50;;;;;;;;;;5071435;28;20035;-40
2022/11/17 10:19:01;;;;;;;17.88;9.90;;;;;;;;;;5054792;28;20028;-40
2022/11/17 10:21:29;;;;;;;13.52;8.75;;;;;;;;;;5062658;28;20614;-42
2022/11/17 10:23:56;;;;;;;16.05;9.23;;;;;;;;;;5057275;28;20032;-40
2022/11/17 10:26:22;;;;;;;13.20;8.80;;;;;;;;;;5065336;28;20036;-41
2022/11/17 10:28:47;;;;;;;15.63;8.30;;;;;;;;;;5061208;28;20465;-39
2022/11/17 10:31:15;;;;;;;14.10;8.85;;;;;;;;;;5063104;28;20070;-42
2022/11/17 10:33:45;;;;;;;15.63;9.05;;;;;;;;;;5054477;28;20024;-41
2022/11/17 10:36:13;;;;;;;14.57;8.45;;;;;;;;;;5063067;28;20032;-42
2022/11/17 10:38:42;;;;;;;16.73;8.57;;;;;;;;;;5062148;28;20016;-45
2022/11/17 10:41:11;;;;;;;13.52;7.70;;;;;;;;;;5053417;28;20024;-43
2022/11/17 10:43:38;;;;;;;13.30;7.68;;;;;;;;;;5060432;28;20093;-37
2022/11/17 10:46:05;;;;;;;12.68;7.65;;;;;;;;;;5067229;28;20060;-40
2022/11/17 10:48:34;;;;;;;10.32;6.38;;;;;;;;;;5064869;28;20033;-41
2022/11/17 10:51:01;;;;;;;11.63;6.60;;;;;;;;;;5056235;28;20029;-39
2022/11/17 10:53:29;;;;;;;9.88;6.75;;;;;;;;;;5058436;28;20035;-42
2022/11/17 10:56:02;;;;;;;10.88;6.93;;;;;;;;;;5056762;28;20029;-44
2022/11/17 10:58:28;;;;;;;11.50;6.78;;;;;;;;;;5056698;28;20423;-38
2022/11/17 11:00:57;;;;;;;11.50;6.10;;;;;;;;;;5067755;28;20826;-41
2022/11/17 11:03:30;;;;;;;9.43;6.25;;;;;;;;;;5056966;28;20028;-42
2022/11/17 11:05:55;;;;;;;12.07;6.80;;;;;;;;;;5055578;28;20083;-39
2022/11/17 11:08:22;;;;;;;9.80;6.25;;;;;;;;;;5053762;28;20024;-42
2022/11/17 11:10:52;;;;;;;13.98;7.18;;;;;;;;;;5065653;28;20492;-40
2022/11/17 11:13:23;;;;;;;11.90;6.90;;;;;;;;;;5066597;28;20020;-42
2022/11/17 11:15:52;;;;;;;11.07;7.28;;;;;;;;;;5067297;28;20032;-37
2022/11/17 11:18:18;;;;;;;11.48;7.25;;;;;;;;;;5061079;28;20012;-39
2022/11/17 11:20:56;;;;;;;11.25;6.60;;;;;;;;;;5060836;28;20539;-43
2022/11/17 11:23:34;;;;;;;16.45;5.82;;;;;;;;;;5051872;28;20079;-40
2022/11/17 11:26:18;;;;;;;10.85;7.35;;;;;;;;;;5067732;28;20480;-41
2022/11/17 11:28:55;;;;;;;11.18;7.22;;;;;;;;;;5061658;28;20379;-42
2022/11/17 11:31:39;;;;;;;9.50;6.10;;;;;;;;;;5059120;28;20032;-39
2022/11/17 11:34:04;;;;;;;16.50;7.70;;;;;;;;;;5053464;28;20044;-41
2022/11/17 11:36:41;;;;;;;15.27;7.22;;;;;;;;;;5056700;28;20024;-43
2022/11/17 11:39:27;;;;;;;9.45;6.43;;;;;;;;;;5056188;28;20089;-42
2022/11/17 11:42:11;;;;;;;9.50;6.28;;;;;;;;;;5064414;28;20033;-41
2022/11/17 11:44:55;;;;;;;7.82;5.35;;;;;;;;;;5066375;28;20055;-41
2022/11/17 11:47:32;;;;;;;8.65;5.57;;;;;;;;;;5053060;28;20500;-41
2022/11/17 11:50:02;;;;;;;8.25;5.28;;;;;;;;;;5053598;28;20032;-37
2022/11/17 11:52:31;;;;;;;9.73;5.32;;;;;;;;;;5056459;28;20028;-42
2022/11/17 11:55:16;;;;;;;16.17;6.35;;;;;;;;;;5055003;28;20032;-40
2022/11/17 11:57:47;;;;;;;12.15;5.32;;;;;;;;;;5053184;28;20029;-41
2022/11/17 12:00:13;;;;;;;12.75;5.82;;;;;;;;;;5060715;28;20107;-42
2022/11/17 12:02:57;;;;;;;8.32;5.72;;;;;;;;;;5064126;28;20028;-37
2022/11/17 12:05:23;;;;;;;8.70;5.85;;;;;;;;;;5068997;28;20036;-41
2022/11/17 12:07:52;;;;;;;11.90;6.45;;;;;;;;;;5057912;28;20031;-41
2022/11/17 12:10:36;;;;;;;12.52;6.55;;;;;;;;;;5062169;28;20076;-47
2022/11/17 12:13:02;;;;;;;9.95;6.38;;;;;;;;;;5053309;28;20029;-41
2022/11/17 12:15:28;;;;;;;11.13;6.07;;;;;;;;;;5053775;28;21063;-41
2022/11/17 12:17:56;;;;;;;11.25;6.13;;;;;;;;;;5060187;28;20107;-44
2022/11/17 12:20:47;;;;;;;8.23;5.85;;;;;;;;;;5055033;28;20020;-44
2022/11/17 12:23:22;;;;;;;12.85;6.75;;;;;;;;;;5050038;28;20073;-42
2022/11/17 12:25:52;;;;;;;10.85;6.38;;;;;;;;;;5059535;28;20040;-42
2022/11/17 12:28:37;;;;;;;9.70;5.60;;;;;;;;;;5058705;28;20017;-38
2022/11/17 12:31:03;;;;;;;11.10;6.60;;;;;;;;;;5051081;28;20024;-42
2022/11/17 12:33:47;;;;;;;7.57;5.15;;;;;;;;;;5052939;28;20036;-44
2022/11/17 12:36:31;;;;;;;8.73;5.95;;;;;;;;;;5058874;28;20060;-40
2022/11/17 12:39:00;;;;;;;9.23;5.78;;;;;;;;;;5054077;28;20037;-43
2022/11/17 12:41:25;;;;;;;;;;;;;;;;;;5049127;28;20107;-42
2022/11/17 12:43:51;;;;;;;10.93;5.70;;;;;;;;;;5055812;28;19995;-42
2022/11/17 12:46:23;;;;;;;9.35;5.75;;;;;;;;;;5056565;28;20332;-38
2022/11/17 12:48:57;;;;;;;12.45;6.05;;;;;;;;;;5061329;28;20041;-43
2022/11/17 12:51:29;;;;;;;9.00;5.70;;;;;;;;;;5056774;28;20021;-41
2022/11/17 12:54:13;;;;;;;9.82;5.38;;;;;;;;;;5053931;28;20090;-44
2022/11/17 12:56:42;;;;;;;8.70;5.72;;;;;;;;;;5056501;28;20025;-39
2022/11/17 12:59:19;;;;;;;12.10;6.55;;;;;;;;;;5055697;28;20029;-40
2022/11/17 13:02:02;;;;;;;11.45;6.28;;;;;;;;;;5060450;28;20058;-38
2022/11/17 13:04:54;;;;;;;9.90;6.13;;;;;;;;;;5058432;28;20034;-40
2022/11/17 13:07:21;;;;;;;8.85;5.72;;;;;;;;;;5055189;28;20044;-37
2022/11/17 13:09:50;;;;;;;8.52;5.80;;;;;;;;;;5058401;28;20024;-41
2022/11/17 13:12:20;;;;;;;9.05;6.05;;;;;;;;;;5057596;28;20376;-42
2022/11/17 13:14:54;;;;;;;11.00;5.88;;;;;;;;;;5058817;28;20025;-40
2022/11/17 13:17:21;;;;;;;9.63;6.57;;;;;;;;;;5051490;28;20163;-39
2022/11/17 13:19:46;;;;;;;12.00;5.50;;;;;;;;;;5061100;28;20028;-44
2022/11/17 13:22:14;;;;;;;11.20;6.22;;;;;;;;;;5058368;28;20403;-41
2022/11/17 13:24:40;;;;;;;11.82;5.47;;;;;;;;;;5058897;28;20068;-40
2022/11/17 13:27:15;;;;;;;10.55;6.00;;;;;;;;;;5063124;28;20037;-43
2022/11/17 13:29:40;;;;;;;9.90;6.25;;;;;;;;;;5060011;28;20488;-47
2022/11/17 13:32:13;;;;;;;12.30;5.88;;;;;;;;;;5054328;28;20025;-44
2022/11/17 13:34:46;;;;;;;10.32;6.38;;;;;;;;;;5055016;28;20021;-42
2022/11/17 13:37:16;;;;;;;11.68;7.13;;;;;;;;;;5075829;28;20020;-44
2022/11/17 13:39:52;;;;;;;11.50;6.65;;;;;;;;;;5074273;28;20756;-44
2022/11/17 13:42:18;;;;;;;12.35;7.07;;;;;;;;;;5051126;28;20047;-43
2022/11/17 13:44:44;;;;;;;13.73;6.63;;;;;;;;;;5058415;28;20021;-45
2022/11/17 13:47:28;;;;;;;14.05;7.85;;;;;;;;;;5063551;28;20059;-41
2022/11/17 13:49:54;;;;;;;11.20;7.10;;;;;;;;;;5062477;28;20111;-40
2022/11/17 13:52:37;;;;;;;11.73;6.95;;;;;;;;;;5057541;28;20104;-43
2022/11/17 13:55:07;;;;;;;11.32;7.07;;;;;;;;;;5047633;28;20017;-45
2022/11/17 13:57:32;;;;;;;;;;;;;;;;;;5054787;28;20255;-45
2022/11/17 13:59:58;;;;;;;12.17;6.50;;;;;;;;;;5055151;28;20306;-44
2022/11/17 14:02:25;;;;;;;12.45;7.53;;;;;;;;;;5057766;28;20327;-42
2022/11/17 14:05:09;;;;;;;19.80;8.35;;;;;;;;;;5061407;28;20025;-43
2022/11/17 14:07:35;;;;;;;16.95;8.15;;;;;;;;;;5056006;28;20029;-43
2022/11/17 14:10:11;;;;;;;23.27;9.15;;;;;;;;;;5050342;28;20341;-46
2022/11/17 14:12:37;;;;;;;16.17;8.48;;;;;;;;;;5066160;28;20014;-44
2022/11/17 14:15:11;;;;;;;22.75;10.65;;;;;;;;;;5065267;28;20025;-44
2022/11/17 14:17:36;;;;;;;20.85;10.88;;;;;;;;;;5055455;28;20021;-41
2022/11/17 14:20:28;;;;;;;19.67;10.18;;;;;;;;;;5059773;28;20802;-45
2022/11/17 14:23:00;;;;;;;19.65;10.18;;;;;;;;;;5054613;28;20168;-41
2022/11/17 14:25:26;;;;;;;18.08;9.82;;;;;;;;;;5060459;28;20043;-43
2022/11/17 14:27:51;;;;;;;18.52;10.32;;;;;;;;;;5057691;28;20021;-45
2022/11/17 14:30:17;;;;;;;23.25;10.50;;;;;;;;;;5058004;28;20472;-42
2022/11/17 14:32:42;;;;;;;20.75;11.30;;;;;;;;;;5055651;28;20112;-39
2022/11/17 14:35:11;;;;;;;36.40;13.38;;;;;;;;;;5052596;28;20040;-42
2022/11/17 14:37:36;;;;;;;35.30;14.50;;;;;;;;;;5063402;28;20460;-43
2022/11/17 14:40:03;;;;;;;28.58;14.23;;;;;;;;;;5054704;28;20300;-44
2022/11/17 14:42:29;;;;;;;28.13;13.30;;;;;;;;;;5054638;28;20372;-43
2022/11/17 14:44:54;;;;;;;30.63;14.43;;;;;;;;;;5056772;28;20040;-45
2022/11/17 14:47:20;;;;;;;26.90;14.77;;;;;;;;;;5056525;28;20094;-43
2022/11/17 14:49:45;;;;;;;31.65;14.15;;;;;;;;;;5056896;28;20435;-45
2022/11/17 14:52:10;;;;;;;34.10;14.40;;;;;;;;;;5064075;28;20067;-41
2022/11/17 14:54:35;;;;;;;30.08;16.35;;;;;;;;;;5062268;28;20020;-43
2022/11/17 14:57:01;;;;;;;36.70;17.40;;;;;;;;;;5060979;28;20021;-43